createdAt,value
2022-10-13T00:00:49.563Z,9.68
2022-10-13T00:03:35.086Z,3.10
2022-10-13T00:06:05.822Z,5.60
2022-10-13T00:08:33.160Z,3.80
2022-10-13T00:11:00.603Z,3.28
2022-10-13T00:13:28.996Z,4.57
2022-10-13T00:15:56.074Z,2.83
2022-10-13T00:18:23.152Z,4.18
2022-10-13T00:20:51.189Z,4.00
2022-10-13T00:23:18.636Z,6.43
2022-10-13T00:25:47.940Z,5.22
2022-10-13T00:28:17.003Z,5.55
2022-10-13T00:30:44.729Z,4.05
2022-10-13T00:33:13.312Z,2.42
2022-10-13T00:35:45.380Z,3.05
2022-10-13T00:38:17.459Z,7.15
2022-10-13T00:40:48.422Z,2.78
2022-10-13T00:45:50.791Z,6.10
2022-10-13T00:48:26.593Z,7.25
2022-10-13T00:50:54.174Z,5.35
2022-10-13T00:53:24.398Z,5.88
2022-10-13T00:55:52.426Z,4.97
2022-10-13T00:58:23.620Z,1.88
2022-10-13T01:00:53.052Z,5.32
2022-10-13T01:03:21.437Z,5.78
2022-10-13T01:05:51.450Z,3.78
2022-10-13T01:08:20.129Z,3.87
2022-10-13T01:11:27.355Z,4.88
2022-10-13T01:13:56.954Z,5.32
2022-10-13T01:16:54.350Z,1.60
2022-10-13T01:19:42.999Z,5.70
2022-10-13T01:22:25.267Z,4.03
2022-10-13T01:25:36.311Z,3.70
2022-10-13T01:28:34.792Z,2.95
2022-10-13T01:31:32.048Z,3.15
2022-10-13T01:34:08.288Z,3.72
2022-10-13T01:37:02.799Z,4.10
2022-10-13T01:39:45.065Z,4.47
2022-10-13T01:42:46.902Z,3.47
2022-10-13T01:45:19.071Z,5.15
2022-10-13T01:50:18.411Z,6.28
2022-10-13T01:52:47.055Z,1.15
2022-10-13T01:55:14.326Z,4.28
2022-10-13T01:57:44.165Z,4.15
2022-10-13T02:00:18.281Z,4.00
2022-10-13T02:03:03.740Z,3.22
2022-10-13T02:05:55.914Z,2.97
2022-10-13T02:08:59.194Z,4.03
2022-10-13T02:11:27.902Z,4.22
2022-10-13T02:13:58.031Z,3.13
2022-10-13T02:16:49.735Z,6.22
2022-10-13T02:19:18.414Z,6.10
2022-10-13T02:21:46.858Z,6.15
2022-10-13T02:24:14.398Z,4.57
2022-10-13T02:26:42.787Z,0.95
2022-10-13T02:29:17.045Z,4.07
2022-10-13T02:31:45.222Z,4.80
2022-10-13T02:34:13.339Z,5.50
2022-10-13T02:36:41.086Z,5.07
2022-10-13T02:39:10.389Z,4.57
2022-10-13T02:41:37.989Z,8.10
2022-10-13T02:44:06.307Z,4.03
2022-10-13T02:46:42.067Z,4.93
2022-10-13T02:49:09.999Z,5.72
2022-10-13T02:51:40.096Z,7.88
2022-10-13T02:54:08.325Z,5.72
2022-10-13T02:56:35.387Z,4.88
2022-10-13T02:59:02.459Z,6.97
2022-10-13T03:01:29.629Z,5.28
2022-10-13T03:03:56.808Z,2.22
2022-10-13T03:06:23.870Z,5.63
2022-10-13T03:08:51.330Z,4.97
2022-10-13T03:11:18.464Z,5.70
2022-10-13T03:13:45.512Z,9.90
2022-10-13T03:16:12.608Z,4.78
2022-10-13T03:18:39.656Z,6.50
2022-10-13T03:21:07.571Z,6.03
2022-10-13T03:23:36.070Z,5.20
2022-10-13T03:26:04.584Z,5.03
2022-10-13T03:28:31.741Z,5.78
2022-10-13T03:31:08.330Z,5.90
2022-10-13T03:33:35.523Z,8.02
2022-10-13T03:36:05.025Z,6.63
2022-10-13T03:38:34.004Z,5.35
2022-10-13T03:41:09.075Z,6.38
2022-10-13T03:43:36.226Z,6.32
2022-10-13T03:46:05.067Z,7.00
2022-10-13T03:48:32.739Z,7.20
2022-10-13T03:51:00.088Z,7.15
2022-10-13T03:53:27.166Z,7.28
2022-10-13T03:55:56.232Z,11.00
2022-10-13T03:58:24.921Z,3.97
2022-10-13T04:00:53.815Z,6.40
2022-10-13T04:03:21.646Z,8.60
2022-10-13T04:05:48.684Z,8.05
2022-10-13T04:08:17.077Z,8.57
2022-10-13T04:10:44.171Z,5.22
2022-10-13T04:13:11.293Z,8.93
2022-10-13T04:15:40.929Z,6.18
2022-10-13T04:18:08.593Z,10.70
2022-10-13T04:20:39.651Z,9.50
2022-10-13T04:23:07.511Z,6.97
2022-10-13T04:25:38.588Z,7.25
2022-10-13T04:28:07.190Z,7.20
2022-10-13T04:33:04.034Z,7.50
2022-10-13T04:35:32.011Z,8.63
2022-10-13T04:37:59.280Z,6.10
2022-10-13T04:40:27.509Z,6.18
2022-10-13T04:42:54.564Z,3.92
2022-10-13T04:45:21.761Z,8.27
2022-10-13T04:47:50.738Z,10.05
2022-10-13T04:50:22.369Z,7.03
2022-10-13T04:52:59.746Z,3.25
2022-10-13T04:55:26.995Z,3.60
2022-10-13T04:57:54.044Z,12.35
2022-10-13T05:00:21.414Z,8.02
2022-10-13T05:02:48.605Z,8.80
2022-10-13T05:05:15.723Z,5.60
2022-10-13T05:07:42.818Z,7.50
2022-10-13T05:10:10.040Z,9.35
2022-10-13T05:12:38.389Z,12.18
2022-10-13T05:15:05.960Z,13.55
2022-10-13T05:17:35.433Z,9.68
2022-10-13T05:20:09.168Z,10.02
2022-10-13T05:22:36.514Z,10.48
2022-10-13T05:25:04.192Z,13.20
2022-10-13T05:27:31.329Z,9.32
2022-10-13T05:30:01.572Z,8.88
2022-10-13T05:32:30.756Z,9.07
2022-10-13T05:34:57.806Z,10.52
2022-10-13T05:37:24.949Z,3.85
2022-10-13T05:39:52.011Z,5.82
2022-10-13T05:42:19.360Z,7.97
2022-10-13T05:44:46.662Z,7.00
2022-10-13T05:47:13.732Z,11.73
2022-10-13T05:49:41.092Z,8.38
2022-10-13T05:52:11.928Z,7.97
2022-10-13T05:54:47.448Z,8.77
2022-10-13T05:57:24.971Z,10.38
2022-10-13T06:00:02.675Z,13.18
2022-10-13T06:02:46.171Z,13.25
2022-10-13T06:05:16.481Z,14.25
2022-10-13T06:07:46.123Z,14.07
2022-10-13T06:10:13.501Z,15.25
2022-10-13T06:12:40.559Z,10.85
2022-10-13T06:15:08.418Z,15.55
2022-10-13T06:17:39.643Z,13.13
2022-10-13T06:20:08.357Z,10.50
2022-10-13T06:22:36.365Z,15.13
2022-10-13T06:25:04.879Z,15.13
2022-10-13T06:27:32.282Z,14.27
2022-10-13T06:29:59.737Z,15.10
2022-10-13T06:32:26.880Z,18.70
2022-10-13T06:34:53.965Z,14.27
2022-10-13T06:37:26.979Z,10.98
2022-10-13T06:39:54.513Z,21.80
2022-10-13T06:42:22.083Z,10.45
2022-10-13T06:45:08.600Z,13.45
2022-10-13T06:47:35.666Z,13.75
2022-10-13T06:50:02.831Z,16.80
2022-10-13T06:52:30.094Z,12.55
2022-10-13T06:54:57.126Z,11.13
2022-10-13T06:57:24.192Z,15.07
2022-10-13T06:59:53.067Z,11.20
2022-10-13T07:02:20.511Z,11.05
2022-10-13T07:04:47.846Z,13.32
2022-10-13T07:07:16.146Z,6.20
2022-10-13T07:09:43.951Z,11.10
2022-10-13T07:12:12.864Z,15.77
2022-10-13T07:14:43.031Z,12.63
2022-10-13T07:17:11.394Z,10.90
2022-10-13T07:19:38.467Z,13.48
2022-10-13T07:22:05.618Z,14.55
2022-10-13T07:24:32.668Z,14.68
2022-10-13T07:27:03.930Z,17.17
2022-10-13T07:29:33.909Z,16.95
2022-10-13T07:32:00.969Z,12.60
2022-10-13T07:34:28.146Z,16.13
2022-10-13T07:36:55.268Z,14.73
2022-10-13T07:39:22.306Z,19.50
2022-10-13T07:41:51.217Z,12.70
2022-10-13T07:44:18.851Z,15.60
2022-10-13T07:46:46.089Z,12.75
2022-10-13T07:49:16.039Z,13.52
2022-10-13T07:51:44.481Z,14.95
2022-10-13T07:54:12.311Z,18.15
2022-10-13T07:56:39.777Z,16.30
2022-10-13T07:59:07.791Z,24.27
2022-10-13T08:01:35.177Z,12.95
2022-10-13T08:04:02.420Z,15.35
2022-10-13T08:06:29.617Z,18.50
2022-10-13T08:09:00.635Z,14.95
2022-10-13T08:11:27.958Z,24.13
2022-10-13T08:13:56.050Z,17.20
2022-10-13T08:16:23.547Z,9.95
2022-10-13T08:18:50.921Z,12.05
2022-10-13T08:24:15.423Z,14.25
2022-10-13T08:26:43.321Z,12.38
2022-10-13T08:29:26.761Z,15.38
2022-10-13T08:31:55.032Z,14.88
2022-10-13T08:34:25.768Z,5.22
2022-10-13T08:39:25.138Z,3.03
2022-10-13T08:41:54.381Z,13.20
2022-10-13T08:47:42.494Z,5.43
2022-10-13T08:50:19.329Z,13.95
2022-10-13T08:53:13.353Z,7.38
2022-10-13T08:55:52.818Z,12.55
2022-10-13T08:58:41.921Z,11.23
2022-10-13T09:01:20.617Z,12.48
2022-10-13T09:03:53.364Z,22.73
2022-10-13T09:06:46.699Z,8.30
2022-10-13T09:09:16.305Z,9.77
2022-10-13T09:11:47.549Z,15.50
2022-10-13T09:14:23.024Z,12.85
2022-10-13T09:16:51.814Z,11.10
2022-10-13T09:19:23.707Z,4.53
2022-10-13T09:21:52.748Z,11.52
2022-10-13T09:24:22.071Z,12.77
2022-10-13T09:27:25.351Z,11.60
2022-10-13T09:29:53.054Z,6.15
2022-10-13T09:32:23.866Z,7.80
2022-10-13T09:34:53.480Z,6.30
2022-10-13T09:37:23.534Z,6.35
2022-10-13T09:40:02.237Z,5.43
2022-10-13T09:42:32.077Z,7.78
2022-10-13T09:45:17.069Z,13.75
2022-10-13T09:48:07.598Z,7.03
2022-10-13T09:50:36.064Z,6.53
2022-10-13T09:53:15.020Z,9.68
2022-10-13T09:55:42.261Z,7.43
2022-10-13T09:58:19.915Z,10.52
2022-10-13T10:00:51.371Z,7.13
2022-10-13T10:03:33.914Z,3.13
2022-10-13T10:06:08.075Z,2.38
2022-10-13T10:09:03.653Z,5.25
2022-10-13T10:11:37.628Z,5.13
2022-10-13T10:14:38.291Z,4.78
2022-10-13T10:17:56.308Z,3.60
2022-10-13T10:20:38.108Z,7.03
2022-10-13T10:23:12.809Z,8.18
2022-10-13T10:26:03.531Z,6.40
2022-10-13T10:28:58.057Z,6.47
2022-10-13T10:31:43.536Z,3.42
2022-10-13T10:34:37.096Z,3.42
2022-10-13T10:37:45.746Z,13.68
2022-10-13T10:40:22.251Z,4.32
2022-10-13T10:43:16.722Z,11.73
2022-10-13T10:45:46.562Z,6.10
2022-10-13T10:48:21.210Z,2.17
2022-10-13T10:50:50.824Z,5.60
2022-10-13T10:53:21.137Z,4.03
2022-10-13T10:55:55.582Z,6.13
2022-10-13T10:58:46.731Z,5.75
2022-10-13T11:01:25.232Z,4.90
2022-10-13T11:04:22.584Z,5.28
2022-10-13T11:06:49.649Z,5.20
2022-10-13T11:09:42.643Z,7.18
2022-10-13T11:12:22.010Z,4.78
2022-10-13T11:14:55.432Z,8.48
2022-10-13T11:17:39.579Z,8.30
2022-10-13T11:20:21.892Z,7.03
2022-10-13T11:22:57.859Z,2.38
2022-10-13T11:25:47.594Z,5.78
2022-10-13T11:28:23.696Z,6.07
2022-10-13T11:31:17.546Z,7.03
2022-10-13T11:33:45.807Z,6.82
2022-10-13T11:36:39.598Z,8.63
2022-10-13T11:39:26.714Z,5.68
2022-10-13T11:42:03.015Z,3.63
2022-10-13T11:45:24.097Z,4.40
2022-10-13T11:51:08.255Z,6.88
2022-10-13T11:54:01.509Z,9.65
2022-10-13T11:56:48.786Z,6.15
2022-10-13T11:59:27.674Z,11.60
2022-10-13T12:02:06.969Z,8.82
2022-10-13T12:04:34.079Z,7.38
2022-10-13T12:07:04.962Z,6.78
2022-10-13T12:12:12.676Z,13.95
2022-10-13T12:14:45.601Z,7.40
2022-10-13T12:17:39.095Z,5.82
2022-10-13T12:20:25.650Z,8.55
2022-10-13T12:22:54.471Z,11.07
2022-10-13T12:25:25.691Z,6.43
2022-10-13T12:28:01.088Z,4.50
2022-10-13T12:30:36.379Z,7.27
2022-10-13T12:33:18.119Z,3.00
2022-10-13T12:35:45.226Z,7.25
2022-10-13T12:38:19.873Z,7.00
2022-10-13T12:40:53.391Z,5.60
2022-10-13T12:43:27.590Z,6.10
2022-10-13T12:45:54.801Z,4.93
2022-10-13T12:48:34.247Z,6.15
2022-10-13T12:51:23.478Z,8.10
2022-10-13T12:53:50.733Z,6.63
2022-10-13T12:56:30.756Z,6.97
2022-10-13T12:58:58.998Z,2.10
2022-10-13T13:01:28.957Z,5.90
2022-10-13T13:03:59.211Z,4.85
2022-10-13T13:06:37.422Z,4.70
2022-10-13T13:09:18.396Z,5.25
2022-10-13T13:11:45.667Z,4.20
2022-10-13T13:14:37.922Z,5.80
2022-10-13T13:17:27.698Z,4.00
2022-10-13T13:20:26.371Z,7.18
2022-10-13T13:22:54.806Z,4.43
2022-10-13T13:25:22.060Z,7.13
2022-10-13T13:27:49.318Z,5.63
2022-10-13T13:30:21.958Z,4.78
2022-10-13T13:32:50.038Z,3.95
2022-10-13T13:35:18.113Z,3.97
2022-10-13T13:37:50.563Z,6.47
2022-10-13T13:40:23.409Z,4.28
2022-10-13T13:42:50.795Z,10.40
2022-10-13T13:45:20.572Z,2.83
2022-10-13T13:47:48.399Z,5.13
2022-10-13T13:50:27.246Z,10.00
2022-10-13T13:52:57.652Z,4.85
2022-10-13T13:55:26.028Z,6.38
2022-10-13T13:57:53.280Z,6.05
2022-10-13T14:00:22.625Z,5.85
2022-10-13T14:02:56.743Z,4.32
2022-10-13T14:05:24.233Z,3.17
2022-10-13T14:07:53.964Z,4.97
2022-10-13T14:10:21.065Z,3.00
2022-10-13T14:12:48.203Z,5.55
2022-10-13T14:15:15.743Z,7.45
2022-10-13T14:17:42.972Z,3.30
2022-10-13T14:20:10.419Z,6.25
2022-10-13T14:22:39.267Z,6.32
2022-10-13T14:25:07.632Z,7.13
2022-10-13T14:27:35.675Z,5.15
2022-10-13T14:30:07.760Z,5.90
2022-10-13T14:32:37.214Z,1.73
2022-10-13T14:35:08.209Z,7.55
2022-10-13T14:37:35.707Z,3.42
2022-10-13T14:40:03.160Z,8.75
2022-10-13T14:42:30.773Z,12.15
2022-10-13T14:44:57.898Z,4.25
2022-10-13T14:47:24.975Z,5.15
2022-10-13T14:49:54.487Z,6.25
2022-10-13T14:52:21.609Z,7.18
2022-10-13T14:54:48.659Z,6.97
2022-10-13T14:57:16.506Z,5.25
2022-10-13T14:59:44.219Z,7.18
2022-10-13T15:02:12.148Z,5.20
2022-10-13T15:04:45.440Z,1.75
2022-10-13T15:07:12.557Z,7.35
2022-10-13T15:09:53.245Z,4.57
2022-10-13T15:12:28.153Z,10.02
2022-10-13T15:14:55.282Z,6.38
2022-10-13T15:17:22.554Z,4.40
2022-10-13T15:19:50.021Z,3.85
2022-10-13T15:22:17.125Z,3.00
2022-10-13T15:24:44.180Z,2.97
2022-10-13T15:27:11.279Z,5.22
2022-10-13T15:29:38.365Z,10.90
2022-10-13T15:32:10.942Z,7.35
2022-10-13T15:34:41.164Z,5.13
2022-10-13T15:37:08.331Z,3.15
2022-10-13T15:39:35.715Z,5.20
2022-10-13T15:42:04.220Z,18.10
2022-10-13T15:44:50.991Z,8.02
2022-10-13T15:47:18.819Z,5.15
2022-10-13T15:49:45.910Z,4.85
2022-10-13T15:52:13.015Z,6.20
2022-10-13T15:54:40.991Z,6.18
2022-10-13T15:57:08.568Z,5.55
2022-10-13T15:59:35.716Z,7.88
2022-10-13T16:02:02.869Z,9.80
2022-10-13T16:04:34.850Z,7.05
2022-10-13T16:07:04.517Z,7.38
2022-10-13T16:09:31.704Z,2.42
2022-10-13T16:11:58.844Z,8.23
2022-10-13T16:14:25.921Z,9.60
2022-10-13T16:16:52.986Z,7.60
2022-10-13T16:19:20.158Z,6.20
2022-10-13T16:21:47.251Z,9.95
2022-10-13T16:24:15.054Z,6.68
2022-10-13T16:26:42.233Z,7.78
2022-10-13T16:29:09.367Z,8.07
2022-10-13T16:31:36.423Z,8.27
2022-10-13T16:34:04.006Z,16.08
2022-10-13T16:36:31.376Z,14.40
2022-10-13T16:38:58.983Z,10.57
2022-10-13T16:41:27.416Z,12.18
2022-10-13T16:43:55.183Z,8.10
2022-10-13T16:46:22.570Z,11.32
2022-10-13T16:48:50.176Z,12.38
2022-10-13T16:51:20.286Z,13.38
2022-10-13T16:53:51.867Z,9.20
2022-10-13T16:56:22.690Z,12.10
2022-10-13T17:01:17.888Z,8.93
2022-10-13T17:03:45.992Z,8.82
2022-10-13T17:06:14.424Z,11.27
2022-10-13T17:08:42.848Z,13.00
2022-10-13T17:11:21.429Z,14.48
2022-10-13T17:13:49.640Z,11.05
2022-10-13T17:16:17.441Z,11.52
2022-10-13T17:18:45.428Z,13.90
2022-10-13T17:21:15.183Z,11.98
2022-10-13T17:23:48.389Z,9.15
2022-10-13T17:26:17.519Z,12.88
2022-10-13T17:28:46.020Z,13.55
2022-10-13T17:31:19.360Z,10.32
2022-10-13T17:33:47.875Z,12.32
2022-10-13T17:36:22.218Z,10.65
2022-10-13T17:38:50.108Z,11.85
2022-10-13T17:41:18.612Z,14.48
2022-10-13T17:43:51.171Z,10.38
2022-10-13T17:46:36.303Z,14.13
2022-10-13T17:49:05.613Z,10.88
2022-10-13T17:51:32.794Z,12.90
2022-10-13T17:54:00.688Z,14.05
2022-10-13T17:56:28.694Z,11.07
2022-10-13T17:58:55.958Z,11.25
2022-10-13T18:01:26.498Z,8.60
2022-10-13T18:03:59.204Z,12.23
2022-10-13T18:06:38.468Z,13.27
2022-10-13T18:09:14.761Z,5.97
2022-10-13T18:11:49.455Z,14.25
2022-10-13T18:14:23.482Z,11.25
2022-10-13T18:16:51.851Z,7.28
2022-10-13T18:19:19.331Z,12.30
2022-10-13T18:21:46.514Z,15.15
2022-10-13T18:24:13.933Z,10.65
2022-10-13T18:26:41.073Z,18.25
2022-10-13T18:29:10.896Z,11.55
2022-10-13T18:31:39.703Z,16.67
2022-10-13T18:34:10.781Z,11.02
2022-10-13T18:36:44.462Z,10.98
2022-10-13T18:39:14.800Z,12.05
2022-10-13T18:41:46.109Z,13.57
2022-10-13T18:44:13.652Z,12.23
2022-10-13T18:46:41.060Z,11.45
2022-10-13T18:49:12.614Z,10.52
2022-10-13T18:51:42.223Z,17.80
2022-10-13T18:54:11.236Z,14.20
2022-10-13T18:56:39.843Z,12.60
2022-10-13T18:59:08.528Z,10.55
2022-10-13T19:01:37.817Z,9.23
2022-10-13T19:04:05.809Z,11.82
2022-10-13T19:06:33.550Z,9.05
2022-10-13T19:09:06.120Z,12.98
2022-10-13T19:11:37.198Z,9.23
2022-10-13T19:14:06.994Z,13.70
2022-10-13T19:16:37.177Z,17.30
2022-10-13T19:19:04.895Z,13.25
2022-10-13T19:21:32.786Z,11.30
2022-10-13T19:24:00.081Z,12.13
2022-10-13T19:26:30.845Z,23.65
2022-10-13T19:29:01.520Z,11.63
2022-10-13T19:31:33.005Z,14.63
2022-10-13T19:34:03.413Z,8.48
2022-10-13T19:36:37.490Z,9.70
2022-10-13T19:39:11.932Z,9.65
2022-10-13T19:41:39.288Z,10.02
2022-10-13T19:44:06.515Z,9.65
2022-10-13T19:46:40.420Z,10.68
2022-10-13T19:49:10.735Z,14.95
2022-10-13T19:51:43.714Z,12.10
2022-10-13T19:54:11.338Z,12.38
2022-10-13T19:56:42.333Z,10.27
2022-10-13T19:59:09.379Z,11.80
2022-10-13T20:01:41.094Z,10.88
2022-10-13T20:04:14.652Z,9.77
2022-10-13T20:09:11.327Z,13.27
2022-10-13T20:11:38.672Z,9.00
2022-10-13T20:14:08.532Z,10.57
2022-10-13T20:16:38.365Z,8.40
2022-10-13T20:19:06.987Z,10.43
2022-10-13T20:21:36.843Z,14.40
2022-10-13T20:24:06.266Z,13.15
2022-10-13T20:26:37.507Z,15.57
2022-10-13T20:29:04.615Z,9.15
2022-10-13T20:31:34.780Z,12.77
2022-10-13T20:34:01.937Z,9.20
2022-10-13T20:36:36.036Z,12.25
2022-10-13T20:39:05.940Z,10.27
2022-10-13T20:41:33.621Z,14.15
2022-10-13T20:44:01.681Z,10.80
2022-10-13T20:46:31.097Z,8.55
2022-10-13T20:49:10.402Z,12.10
2022-10-13T20:51:37.937Z,13.00
2022-10-13T20:54:05.272Z,8.95
2022-10-13T20:56:32.426Z,13.02
2022-10-13T20:59:03.624Z,12.05
2022-10-13T21:01:31.079Z,10.70
2022-10-13T21:03:58.460Z,10.07
2022-10-13T21:06:26.567Z,11.13
2022-10-13T21:08:54.169Z,8.77
2022-10-13T21:11:22.540Z,12.60
2022-10-13T21:13:51.126Z,11.05
2022-10-13T21:16:27.812Z,11.55
2022-10-13T21:18:56.688Z,11.77
2022-10-13T21:21:26.785Z,12.82
2022-10-13T21:23:56.773Z,17.23
2022-10-13T21:26:26.317Z,14.27
2022-10-13T21:28:56.842Z,14.70
2022-10-13T21:31:25.179Z,10.98
2022-10-13T21:33:52.916Z,11.48
2022-10-13T21:36:23.562Z,13.68
2022-10-13T21:38:53.513Z,15.20
2022-10-13T21:41:21.296Z,11.60
2022-10-13T21:43:49.961Z,11.73
2022-10-13T21:46:23.311Z,18.33
2022-10-13T21:48:57.955Z,13.85
2022-10-13T21:51:29.455Z,13.93
2022-10-13T21:54:07.557Z,13.70
2022-10-13T21:56:36.937Z,13.52
2022-10-13T21:59:05.174Z,12.00
2022-10-13T22:01:33.163Z,11.85
2022-10-13T22:04:02.533Z,15.02
2022-10-13T22:06:31.717Z,10.88
2022-10-13T22:09:00.858Z,10.57
2022-10-13T22:11:30.858Z,9.85
2022-10-13T22:13:58.989Z,9.95
2022-10-13T22:16:52.752Z,14.52
2022-10-13T22:19:22.606Z,10.15
2022-10-13T22:21:50.038Z,9.77
2022-10-13T22:24:21.367Z,10.23
2022-10-13T22:26:49.325Z,9.60
2022-10-13T22:29:20.227Z,6.80
2022-10-13T22:31:48.488Z,6.35
2022-10-13T22:34:16.528Z,10.75
2022-10-13T22:36:45.051Z,13.38
2022-10-13T22:39:13.701Z,8.35
2022-10-13T22:41:41.566Z,13.65
2022-10-13T22:44:09.064Z,9.50
2022-10-13T22:46:37.648Z,11.93
2022-10-13T22:49:06.647Z,10.18
2022-10-13T22:51:35.617Z,6.15
2022-10-13T22:54:03.618Z,7.25
2022-10-13T22:56:32.883Z,12.30
2022-10-13T22:59:02.618Z,11.50
2022-10-13T23:01:29.774Z,8.77
2022-10-13T23:03:58.232Z,8.15
2022-10-13T23:06:28.532Z,5.63
2022-10-13T23:08:56.084Z,8.68
2022-10-13T23:11:23.395Z,8.27
2022-10-13T23:13:50.800Z,10.43
2022-10-13T23:16:21.160Z,9.35
2022-10-13T23:18:48.634Z,8.32
2022-10-13T23:21:26.222Z,10.35
2022-10-13T23:24:01.184Z,7.60
2022-10-13T23:26:29.327Z,10.02
2022-10-13T23:28:57.153Z,12.50
2022-10-13T23:31:25.474Z,6.68
2022-10-13T23:33:53.335Z,9.45
2022-10-13T23:36:23.756Z,7.57
2022-10-13T23:38:58.943Z,16.27
2022-10-13T23:41:26.874Z,7.75
2022-10-13T23:43:54.248Z,11.88
2022-10-13T23:46:21.410Z,13.98
2022-10-13T23:48:48.512Z,10.05
2022-10-13T23:51:18.986Z,11.63
2022-10-13T23:53:46.670Z,11.48
2022-10-13T23:56:15.486Z,12.82
2022-10-13T23:58:44.323Z,9.27
